LOT4TL EPWA-KJFK
Flight info
| Callsign | LOT4TL |
|---|---|
| Flight time | N/A |
| Altitude | 36000 |
| Route | LOLSI T174 INDIG DCT SUBIX DCT MIMVA DCT OTBED L60 PENIL M144 BAGSO DCT DEVOL DCT DOGAL/M083F360 DCT 54N020W 54N030W 53N040W/M083F380 51N050W DCT ALLRY/N0473F380 N466A BRADD/N0480F400 DCT PLYMM PARCH4 |
| Aircraft | B772/H-SDE2E3FGHIJ5LORVWXY/LB1D1 |
Departure
| Time | 2026-05-07 11:26 |
|---|---|
| Airport | Warsaw Chopin Airport (EPWA) |
Arrival
| Time | N/A |
|---|---|
| Airport | John F. Kennedy International Airport (KJFK) |
| Time | Latitude | Longitude | Altitude | Speed | Heading |
|---|---|---|---|---|---|
| 2026-05-07 10:48 | 52.17334 | 20.96842 | 206 ft | 0 kts | 62° |
| 2026-05-07 11:12 | 52.17332 | 20.96837 | 343 ft | 2 kts | 62° |
| 2026-05-07 11:12 | 52.17324 | 20.96811 | 354 ft | 3 kts | 69° |
| 2026-05-07 11:12 | 52.17318 | 20.96780 | 354 ft | 3 kts | 79° |
| 2026-05-07 11:13 | 52.17315 | 20.96747 | 354 ft | 3 kts | 92° |
| 2026-05-07 11:13 | 52.17318 | 20.96715 | 354 ft | 3 kts | 114° |
| 2026-05-07 11:13 | 52.17327 | 20.96692 | 354 ft | 2 kts | 147° |
| 2026-05-07 11:13 | 52.17331 | 20.96688 | 354 ft | 0 kts | 152° |
| 2026-05-07 11:17 | 52.17330 | 20.96689 | 354 ft | 1 kts | 152° |
| 2026-05-07 11:17 | 52.17316 | 20.96700 | 354 ft | 4 kts | 152° |
| 2026-05-07 11:17 | 52.17274 | 20.96737 | 354 ft | 9 kts | 151° |
| 2026-05-07 11:17 | 52.17219 | 20.96786 | 352 ft | 9 kts | 151° |
| 2026-05-07 11:18 | 52.17163 | 20.96785 | 350 ft | 9 kts | 224° |
| 2026-05-07 11:18 | 52.17131 | 20.96698 | 354 ft | 9 kts | 239° |
| 2026-05-07 11:18 | 52.17075 | 20.96678 | 354 ft | 9 kts | 161° |
| 2026-05-07 11:18 | 52.17017 | 20.96723 | 352 ft | 10 kts | 152° |
| 2026-05-07 11:19 | 52.16949 | 20.96782 | 350 ft | 13 kts | 152° |
| 2026-05-07 11:19 | 52.16849 | 20.96869 | 349 ft | 20 kts | 151° |
| 2026-05-07 11:19 | 52.16711 | 20.96991 | 350 ft | 24 kts | 152° |
| 2026-05-07 11:19 | 52.16563 | 20.97120 | 351 ft | 24 kts | 152° |
| 2026-05-07 11:20 | 52.16415 | 20.97248 | 347 ft | 24 kts | 152° |
| 2026-05-07 11:20 | 52.16268 | 20.97378 | 352 ft | 24 kts | 152° |
| 2026-05-07 11:20 | 52.16120 | 20.97507 | 352 ft | 24 kts | 152° |
| 2026-05-07 11:20 | 52.15973 | 20.97636 | 347 ft | 24 kts | 152° |
| 2026-05-07 11:21 | 52.15825 | 20.97764 | 354 ft | 24 kts | 152° |
| 2026-05-07 11:21 | 52.15677 | 20.97893 | 352 ft | 24 kts | 151° |
| 2026-05-07 11:21 | 52.15530 | 20.98023 | 354 ft | 24 kts | 152° |
| 2026-05-07 11:21 | 52.15383 | 20.98152 | 345 ft | 24 kts | 152° |
| 2026-05-07 11:22 | 52.15239 | 20.98276 | 348 ft | 21 kts | 152° |
| 2026-05-07 11:22 | 52.15137 | 20.98365 | 354 ft | 12 kts | 152° |
| 2026-05-07 11:22 | 52.15066 | 20.98384 | 347 ft | 10 kts | 206° |
| 2026-05-07 11:22 | 52.15052 | 20.98363 | 349 ft | 0 kts | 231° |
| 2026-05-07 11:24 | 52.15052 | 20.98362 | 343 ft | 0 kts | 231° |
| 2026-05-07 11:24 | 52.15041 | 20.98338 | 356 ft | 5 kts | 236° |
| 2026-05-07 11:24 | 52.15014 | 20.98258 | 353 ft | 11 kts | 242° |
| 2026-05-07 11:25 | 52.14978 | 20.98146 | 351 ft | 9 kts | 242° |
| 2026-05-07 11:25 | 52.14986 | 20.98096 | 341 ft | 2 kts | 330° |
| 2026-05-07 11:25 | 52.14997 | 20.98087 | 347 ft | 5 kts | 332° |
| 2026-05-07 11:25 | 52.15155 | 20.97953 | 347 ft | 54 kts | 332° |
| 2026-05-07 11:26 | 52.15671 | 20.97499 | 352 ft | 113 kts | 332° |
| 2026-05-07 11:26 | 52.16520 | 20.96752 | 366 ft | 161 kts | 329° |
| 2026-05-07 11:26 | 52.17516 | 20.95877 | 839 ft | 166 kts | 331° |
| 2026-05-07 11:26 | 52.18544 | 20.94999 | 1494 ft | 166 kts | 332° |
| 2026-05-07 11:27 | 52.19569 | 20.94152 | 2172 ft | 173 kts | 330° |
| 2026-05-07 11:27 | 52.20699 | 20.93156 | 2313 ft | 194 kts | 329° |
| 2026-05-07 11:27 | 52.21898 | 20.91899 | 2374 ft | 208 kts | 311° |
| 2026-05-07 11:27 | 52.22528 | 20.89790 | 2519 ft | 220 kts | 276° |
| 2026-05-07 11:28 | 52.22494 | 20.87219 | 2657 ft | 235 kts | 266° |
| 2026-05-07 11:28 | 52.22375 | 20.84490 | 3038 ft | 246 kts | 266° |
| 2026-05-07 11:28 | 52.22256 | 20.81678 | 3570 ft | 251 kts | 265° |
| 2026-05-07 11:28 | 52.22128 | 20.78781 | 4152 ft | 255 kts | 265° |
| 2026-05-07 11:29 | 52.21998 | 20.75884 | 4784 ft | 256 kts | 264° |
| 2026-05-07 11:29 | 52.21869 | 20.73032 | 5423 ft | 256 kts | 264° |
| 2026-05-07 11:29 | 52.21737 | 20.70125 | 6014 ft | 258 kts | 264° |
| 2026-05-07 11:29 | 52.21604 | 20.67202 | 6590 ft | 260 kts | 264° |
| 2026-05-07 11:30 | 52.21469 | 20.64258 | 7147 ft | 261 kts | 263° |
| 2026-05-07 11:30 | 52.21333 | 20.61299 | 7707 ft | 263 kts | 263° |
| 2026-05-07 11:30 | 52.21195 | 20.58321 | 8244 ft | 264 kts | 263° |
| 2026-05-07 11:30 | 52.21057 | 20.55326 | 8797 ft | 265 kts | 263° |
| 2026-05-07 11:31 | 52.20916 | 20.52312 | 9327 ft | 268 kts | 263° |
| 2026-05-07 11:31 | 52.20774 | 20.49278 | 9857 ft | 269 kts | 263° |
| 2026-05-07 11:31 | 52.20629 | 20.46204 | 10209 ft | 278 kts | 263° |
| 2026-05-07 11:31 | 52.20525 | 20.44027 | 10291 ft | 291 kts | 263° |
| 2026-05-07 11:32 | 52.20191 | 20.37086 | 10583 ft | 328 kts | 263° |
| 2026-05-07 11:32 | 52.20007 | 20.33276 | 10838 ft | 345 kts | 263° |
| 2026-05-07 11:32 | 52.19816 | 20.29321 | 11344 ft | 354 kts | 263° |
| 2026-05-07 11:33 | 52.19620 | 20.25281 | 12042 ft | 360 kts | 263° |
| 2026-05-07 11:33 | 52.19421 | 20.21181 | 12842 ft | 366 kts | 263° |
| 2026-05-07 11:33 | 52.19217 | 20.17023 | 13681 ft | 371 kts | 262° |
| 2026-05-07 11:33 | 52.19008 | 20.12803 | 14455 ft | 376 kts | 262° |
| 2026-05-07 11:34 | 52.18794 | 20.08536 | 15305 ft | 380 kts | 262° |
| 2026-05-07 11:34 | 52.18577 | 20.04225 | 16135 ft | 384 kts | 262° |
| 2026-05-07 11:34 | 52.18356 | 19.99860 | 16909 ft | 388 kts | 262° |
| 2026-05-07 11:34 | 52.18132 | 19.95456 | 17680 ft | 392 kts | 262° |
| 2026-05-07 11:35 | 52.17902 | 19.91006 | 18426 ft | 396 kts | 262° |
| 2026-05-07 11:35 | 52.17656 | 19.86517 | 19120 ft | 399 kts | 261° |
| 2026-05-07 11:35 | 52.17292 | 19.82037 | 19820 ft | 400 kts | 259° |
| 2026-05-07 11:35 | 52.16890 | 19.77531 | 20524 ft | 403 kts | 259° |
| 2026-05-07 11:36 | 52.16480 | 19.73005 | 21251 ft | 405 kts | 259° |
| 2026-05-07 11:36 | 52.16068 | 19.68446 | 21938 ft | 408 kts | 259° |
| 2026-05-07 11:36 | 52.15656 | 19.63859 | 22607 ft | 411 kts | 259° |
| 2026-05-07 11:36 | 52.15242 | 19.59239 | 23235 ft | 414 kts | 259° |
| 2026-05-07 11:37 | 52.14825 | 19.54590 | 23791 ft | 417 kts | 258° |
| 2026-05-07 11:37 | 52.14404 | 19.49906 | 24297 ft | 419 kts | 258° |
| 2026-05-07 11:37 | 52.13981 | 19.45201 | 24796 ft | 421 kts | 258° |
| 2026-05-07 11:37 | 52.13554 | 19.40478 | 25277 ft | 424 kts | 258° |
| 2026-05-07 11:38 | 52.13120 | 19.35718 | 25760 ft | 426 kts | 257° |
| 2026-05-07 11:38 | 52.12680 | 19.30942 | 26220 ft | 428 kts | 257° |
| 2026-05-07 11:38 | 52.12229 | 19.26134 | 26641 ft | 431 kts | 257° |
| 2026-05-07 11:38 | 52.11773 | 19.21304 | 27044 ft | 433 kts | 257° |
| 2026-05-07 11:39 | 52.11312 | 19.16439 | 27433 ft | 436 kts | 257° |
| 2026-05-07 11:39 | 52.10848 | 19.11562 | 27816 ft | 438 kts | 257° |
| 2026-05-07 11:39 | 52.10386 | 19.06716 | 28182 ft | 440 kts | 256° |
| 2026-05-07 11:39 | 52.09913 | 19.01786 | 28525 ft | 442 kts | 256° |
| 2026-05-07 11:40 | 52.09437 | 18.96832 | 28880 ft | 445 kts | 256° |
| 2026-05-07 11:40 | 52.08956 | 18.91848 | 29154 ft | 448 kts | 256° |
| 2026-05-07 11:40 | 52.08470 | 18.86846 | 29432 ft | 450 kts | 256° |
| 2026-05-07 11:40 | 52.07980 | 18.81809 | 29702 ft | 451 kts | 256° |
| 2026-05-07 11:41 | 52.07487 | 18.76763 | 29995 ft | 452 kts | 256° |
| 2026-05-07 11:41 | 52.06992 | 18.71712 | 30303 ft | 451 kts | 255° |
| 2026-05-07 11:41 | 52.06498 | 18.66695 | 30665 ft | 449 kts | 255° |
| 2026-05-07 11:41 | 52.06003 | 18.61697 | 31038 ft | 447 kts | 255° |
| 2026-05-07 11:42 | 52.05509 | 18.56730 | 31369 ft | 445 kts | 255° |
| 2026-05-07 11:42 | 52.05013 | 18.51774 | 31692 ft | 444 kts | 255° |
| 2026-05-07 11:42 | 52.04516 | 18.46836 | 32015 ft | 442 kts | 255° |
| 2026-05-07 11:42 | 52.04019 | 18.41910 | 32397 ft | 441 kts | 255° |
| 2026-05-07 11:43 | 52.03522 | 18.37015 | 32746 ft | 439 kts | 255° |
| 2026-05-07 11:43 | 52.03025 | 18.32133 | 33066 ft | 437 kts | 255° |
| 2026-05-07 11:43 | 52.02527 | 18.27265 | 33378 ft | 436 kts | 255° |
| 2026-05-07 11:43 | 52.02029 | 18.22416 | 33697 ft | 435 kts | 255° |
| 2026-05-07 11:44 | 52.01531 | 18.17580 | 34029 ft | 434 kts | 255° |
| 2026-05-07 11:44 | 52.01033 | 18.12761 | 34269 ft | 433 kts | 255° |
| 2026-05-07 11:44 | 52.00535 | 18.07924 | 34425 ft | 435 kts | 257° |
| 2026-05-07 11:44 | 52.00263 | 18.02998 | 34585 ft | 442 kts | 263° |
| 2026-05-07 11:45 | 52.00307 | 17.97991 | 34763 ft | 445 kts | 267° |
| 2026-05-07 11:45 | 52.00572 | 17.92970 | 34966 ft | 449 kts | 272° |
| 2026-05-07 11:45 | 52.01130 | 17.87949 | 35167 ft | 453 kts | 275° |
| 2026-05-07 11:46 | 52.02431 | 17.77854 | 35409 ft | 458 kts | 276° |
| 2026-05-07 11:46 | 52.03081 | 17.72866 | 35649 ft | 457 kts | 276° |
| 2026-05-07 11:46 | 52.03740 | 17.67747 | 35852 ft | 457 kts | 276° |
| 2026-05-07 11:47 | 52.05021 | 17.57576 | 35971 ft | 461 kts | 276° |
| 2026-05-07 11:47 | 52.06281 | 17.47397 | 35986 ft | 458 kts | 276° |
| 2026-05-07 11:48 | 52.07512 | 17.37339 | 35994 ft | 457 kts | 276° |
| 2026-05-07 11:48 | 52.08742 | 17.27197 | 36003 ft | 458 kts | 276° |
| 2026-05-07 11:49 | 52.09968 | 17.17020 | 35997 ft | 459 kts | 276° |
| 2026-05-07 11:49 | 52.11189 | 17.06814 | 35996 ft | 461 kts | 276° |
| 2026-05-07 11:50 | 52.12407 | 16.96561 | 35991 ft | 462 kts | 276° |
| 2026-05-07 11:50 | 52.13618 | 16.86278 | 36006 ft | 463 kts | 276° |
| 2026-05-07 11:51 | 52.14823 | 16.75964 | 36003 ft | 464 kts | 276° |
| 2026-05-07 11:51 | 52.16022 | 16.65623 | 36004 ft | 465 kts | 276° |
| 2026-05-07 11:52 | 52.17213 | 16.55269 | 36003 ft | 465 kts | 276° |
| 2026-05-07 11:52 | 52.18396 | 16.44895 | 36025 ft | 466 kts | 276° |
| 2026-05-07 11:53 | 52.19572 | 16.34497 | 36004 ft | 467 kts | 276° |
| 2026-05-07 11:53 | 52.20740 | 16.24090 | 36002 ft | 468 kts | 276° |
| 2026-05-07 11:54 | 52.21901 | 16.13656 | 36000 ft | 468 kts | 276° |
| 2026-05-07 11:54 | 52.23052 | 16.03227 | 36000 ft | 467 kts | 276° |
| 2026-05-07 11:55 | 52.24192 | 15.92798 | 36025 ft | 467 kts | 276° |
| 2026-05-07 11:55 | 52.25322 | 15.82372 | 36016 ft | 467 kts | 276° |
| 2026-05-07 11:56 | 52.26444 | 15.71942 | 36021 ft | 466 kts | 276° |
| 2026-05-07 11:56 | 52.27556 | 15.61502 | 36019 ft | 467 kts | 276° |
| 2026-05-07 11:57 | 52.28660 | 15.51048 | 36020 ft | 468 kts | 276° |
| 2026-05-07 11:57 | 52.29757 | 15.40558 | 36023 ft | 470 kts | 276° |
| 2026-05-07 11:58 | 52.30851 | 15.30018 | 36021 ft | 471 kts | 276° |
| 2026-05-07 11:58 | 52.31938 | 15.19441 | 36016 ft | 473 kts | 276° |
| 2026-05-07 11:59 | 52.33013 | 15.08895 | 36018 ft | 473 kts | 276° |
| 2026-05-07 11:59 | 52.34091 | 14.98205 | 36033 ft | 474 kts | 276° |
| 2026-05-07 12:00 | 52.35150 | 14.87618 | 36015 ft | 475 kts | 276° |
| 2026-05-07 12:00 | 52.36205 | 14.76961 | 36023 ft | 475 kts | 275° |
| 2026-05-07 12:01 | 52.37254 | 14.66279 | 36021 ft | 475 kts | 275° |
| 2026-05-07 12:01 | 52.38303 | 14.55614 | 36019 ft | 475 kts | 276° |
| 2026-05-07 12:02 | 52.39481 | 14.44970 | 36019 ft | 475 kts | 277° |
| 2026-05-07 12:02 | 52.40696 | 14.34350 | 36026 ft | 475 kts | 277° |
| 2026-05-07 12:03 | 52.41889 | 14.23719 | 36024 ft | 474 kts | 277° |
| 2026-05-07 12:03 | 52.43060 | 14.13078 | 36028 ft | 475 kts | 276° |
| 2026-05-07 12:04 | 52.44215 | 14.02427 | 36051 ft | 475 kts | 277° |
| 2026-05-07 12:04 | 52.45361 | 13.91764 | 36041 ft | 475 kts | 277° |
| 2026-05-07 12:05 | 52.46499 | 13.81096 | 36038 ft | 475 kts | 276° |
| 2026-05-07 12:05 | 52.47628 | 13.70412 | 36043 ft | 475 kts | 276° |
| 2026-05-07 12:06 | 52.48746 | 13.59738 | 36046 ft | 475 kts | 276° |
| 2026-05-07 12:06 | 52.49855 | 13.49059 | 36061 ft | 475 kts | 277° |
| 2026-05-07 12:07 | 52.50955 | 13.38356 | 36031 ft | 476 kts | 277° |
| 2026-05-07 12:07 | 52.52045 | 13.27664 | 36043 ft | 474 kts | 277° |
| 2026-05-07 12:08 | 52.53123 | 13.16995 | 36041 ft | 473 kts | 277° |
| 2026-05-07 12:08 | 52.54188 | 13.06340 | 36042 ft | 473 kts | 277° |
| 2026-05-07 12:09 | 52.55244 | 12.95666 | 36029 ft | 474 kts | 277° |
| 2026-05-07 12:09 | 52.56294 | 12.84970 | 36032 ft | 474 kts | 277° |
| 2026-05-07 12:10 | 52.57334 | 12.74268 | 36026 ft | 475 kts | 277° |
| 2026-05-07 12:10 | 52.58359 | 12.63611 | 36029 ft | 475 kts | 277° |
| 2026-05-07 12:11 | 52.59381 | 12.52879 | 36031 ft | 475 kts | 277° |
| 2026-05-07 12:11 | 52.60395 | 12.42132 | 36037 ft | 475 kts | 277° |
| 2026-05-07 12:12 | 52.61399 | 12.31389 | 36032 ft | 475 kts | 277° |
| 2026-05-07 12:12 | 52.62391 | 12.20655 | 36032 ft | 475 kts | 277° |
| 2026-05-07 12:13 | 52.63374 | 12.09912 | 36055 ft | 475 kts | 277° |
| 2026-05-07 12:13 | 52.64350 | 11.99118 | 36045 ft | 477 kts | 277° |
| 2026-05-07 12:14 | 52.65318 | 11.88316 | 36027 ft | 476 kts | 277° |
| 2026-05-07 12:14 | 52.66274 | 11.77543 | 36036 ft | 474 kts | 277° |
| 2026-05-07 12:15 | 52.67215 | 11.66803 | 36051 ft | 474 kts | 277° |
| 2026-05-07 12:15 | 52.68147 | 11.56061 | 36045 ft | 473 kts | 277° |
| 2026-05-07 12:16 | 52.69067 | 11.45341 | 36046 ft | 472 kts | 277° |
| 2026-05-07 12:16 | 52.69977 | 11.34614 | 36047 ft | 472 kts | 277° |
| 2026-05-07 12:17 | 52.70878 | 11.23877 | 36051 ft | 472 kts | 277° |
| 2026-05-07 12:17 | 52.71769 | 11.13145 | 36048 ft | 473 kts | 277° |
| 2026-05-07 12:18 | 52.72652 | 11.02390 | 36055 ft | 473 kts | 276° |
| 2026-05-07 12:18 | 52.73525 | 10.91623 | 36047 ft | 474 kts | 277° |
| 2026-05-07 12:19 | 52.74244 | 10.82662 | 36055 ft | 474 kts | 276° |
| 2026-05-07 12:19 | 52.75100 | 10.71884 | 36048 ft | 474 kts | 276° |
| 2026-05-07 12:20 | 52.75947 | 10.61091 | 36053 ft | 474 kts | 276° |
| 2026-05-07 12:20 | 52.76783 | 10.50299 | 36056 ft | 474 kts | 276° |
| 2026-05-07 12:21 | 52.77610 | 10.39506 | 36044 ft | 473 kts | 276° |
| 2026-05-07 12:21 | 52.78426 | 10.28727 | 36052 ft | 473 kts | 276° |
| 2026-05-07 12:22 | 52.79231 | 10.17943 | 36049 ft | 473 kts | 276° |
| 2026-05-07 12:22 | 52.80027 | 10.07163 | 36057 ft | 473 kts | 276° |
| 2026-05-07 12:23 | 52.80807 | 9.96450 | 36050 ft | 473 kts | 276° |
| 2026-05-07 12:23 | 52.81583 | 9.85664 | 36051 ft | 473 kts | 276° |
| 2026-05-07 12:24 | 52.82349 | 9.74878 | 36065 ft | 472 kts | 276° |
| 2026-05-07 12:24 | 52.83105 | 9.64088 | 36067 ft | 473 kts | 276° |
| 2026-05-07 12:25 | 52.83852 | 9.53272 | 36069 ft | 474 kts | 276° |
| 2026-05-07 12:25 | 52.84591 | 9.42450 | 36053 ft | 473 kts | 276° |
| 2026-05-07 12:26 | 52.85319 | 9.31627 | 36064 ft | 473 kts | 276° |
| 2026-05-07 12:26 | 52.86037 | 9.20799 | 36060 ft | 473 kts | 276° |
| 2026-05-07 12:27 | 52.86744 | 9.09982 | 36072 ft | 473 kts | 276° |
| 2026-05-07 12:27 | 52.87441 | 8.99173 | 36073 ft | 472 kts | 275° |
| 2026-05-07 12:28 | 52.88128 | 8.88369 | 36072 ft | 472 kts | 275° |
| 2026-05-07 12:28 | 52.88805 | 8.77565 | 36077 ft | 472 kts | 275° |
| 2026-05-07 12:29 | 52.89471 | 8.66763 | 36072 ft | 471 kts | 275° |
| 2026-05-07 12:29 | 52.90128 | 8.55960 | 36080 ft | 471 kts | 275° |
| 2026-05-07 12:30 | 52.90774 | 8.45164 | 36073 ft | 471 kts | 275° |
| 2026-05-07 12:30 | 52.91410 | 8.34365 | 36066 ft | 471 kts | 275° |
| 2026-05-07 12:31 | 52.92035 | 8.23587 | 36077 ft | 470 kts | 275° |
| 2026-05-07 12:31 | 52.92650 | 8.12813 | 36078 ft | 470 kts | 275° |
| 2026-05-07 12:32 | 52.93253 | 8.02085 | 36071 ft | 471 kts | 275° |
| 2026-05-07 12:32 | 52.93850 | 7.91268 | 36065 ft | 472 kts | 275° |
| 2026-05-07 12:33 | 52.94729 | 7.75025 | 36059 ft | 470 kts | 274° |
| 2026-05-07 12:33 | 52.95299 | 7.64241 | 36056 ft | 469 kts | 274° |
| 2026-05-07 12:34 | 52.95860 | 7.53473 | 36058 ft | 468 kts | 274° |
| 2026-05-07 12:34 | 52.96409 | 7.42715 | 36052 ft | 468 kts | 274° |
| 2026-05-07 12:35 | 52.96950 | 7.31942 | 36054 ft | 469 kts | 274° |
| 2026-05-07 12:35 | 52.97481 | 7.21165 | 36049 ft | 469 kts | 274° |
| 2026-05-07 12:36 | 52.98002 | 7.10378 | 36063 ft | 469 kts | 274° |
| 2026-05-07 12:36 | 52.98515 | 6.99579 | 36069 ft | 470 kts | 274° |
| 2026-05-07 12:37 | 52.99018 | 6.88756 | 36066 ft | 471 kts | 274° |
| 2026-05-07 12:37 | 52.99512 | 6.77929 | 36076 ft | 471 kts | 274° |
| 2026-05-07 12:38 | 52.99996 | 6.67092 | 36073 ft | 471 kts | 274° |
| 2026-05-07 12:38 | 53.00470 | 6.56253 | 36079 ft | 471 kts | 273° |
| 2026-05-07 12:39 | 53.00936 | 6.45383 | 36061 ft | 472 kts | 274° |
| 2026-05-07 12:39 | 53.01392 | 6.34503 | 36075 ft | 473 kts | 273° |
| 2026-05-07 12:40 | 53.01838 | 6.23608 | 36073 ft | 473 kts | 273° |
| 2026-05-07 12:40 | 53.02272 | 6.12777 | 36075 ft | 473 kts | 273° |
| 2026-05-07 12:41 | 53.02700 | 6.01858 | 36076 ft | 474 kts | 273° |
| 2026-05-07 12:41 | 53.03119 | 5.90904 | 36096 ft | 476 kts | 273° |
| 2026-05-07 12:42 | 53.03528 | 5.79921 | 36088 ft | 477 kts | 273° |
| 2026-05-07 12:42 | 53.03929 | 5.68904 | 36094 ft | 478 kts | 273° |
| 2026-05-07 12:43 | 53.04320 | 5.57879 | 36077 ft | 478 kts | 273° |
| 2026-05-07 12:43 | 53.04701 | 5.46835 | 36089 ft | 479 kts | 273° |
| 2026-05-07 12:44 | 53.05073 | 5.35759 | 36091 ft | 480 kts | 273° |
| 2026-05-07 12:44 | 53.05435 | 5.24666 | 36101 ft | 481 kts | 273° |
| 2026-05-07 12:45 | 53.05787 | 5.13574 | 36100 ft | 481 kts | 272° |
| 2026-05-07 12:45 | 53.06129 | 5.02461 | 36102 ft | 482 kts | 272° |
| 2026-05-07 12:46 | 53.06461 | 4.91321 | 36106 ft | 483 kts | 272° |
| 2026-05-07 12:46 | 53.06784 | 4.80147 | 36109 ft | 484 kts | 272° |
| 2026-05-07 12:47 | 53.07097 | 4.68956 | 36104 ft | 485 kts | 272° |
| 2026-05-07 12:47 | 53.07400 | 4.57735 | 36106 ft | 486 kts | 272° |
| 2026-05-07 12:48 | 53.07692 | 4.46520 | 36103 ft | 485 kts | 272° |
| 2026-05-07 12:48 | 53.07972 | 4.35388 | 36111 ft | 485 kts | 272° |
| 2026-05-07 12:49 | 53.08243 | 4.24194 | 36114 ft | 484 kts | 272° |
| 2026-05-07 12:49 | 53.08503 | 4.13006 | 36118 ft | 484 kts | 272° |
| 2026-05-07 12:50 | 53.08753 | 4.01825 | 36106 ft | 484 kts | 272° |
| 2026-05-07 12:50 | 53.08992 | 3.90639 | 36114 ft | 484 kts | 272° |
| 2026-05-07 12:51 | 53.09220 | 3.79442 | 36119 ft | 484 kts | 272° |
| 2026-05-07 12:51 | 53.09439 | 3.68233 | 36120 ft | 485 kts | 271° |
| 2026-05-07 12:52 | 53.09647 | 3.57022 | 36112 ft | 485 kts | 271° |
| 2026-05-07 12:52 | 53.09845 | 3.45814 | 36123 ft | 485 kts | 271° |
| 2026-05-07 12:53 | 53.10034 | 3.34610 | 36119 ft | 484 kts | 271° |
| 2026-05-07 12:53 | 53.10467 | 3.23427 | 36106 ft | 484 kts | 276° |
| 2026-05-07 12:54 | 53.11282 | 3.12312 | 36120 ft | 484 kts | 277° |
| 2026-05-07 12:54 | 53.12116 | 3.01207 | 36118 ft | 484 kts | 276° |
| 2026-05-07 12:55 | 53.12900 | 2.90082 | 36118 ft | 484 kts | 276° |
| 2026-05-07 12:55 | 53.13651 | 2.78934 | 36112 ft | 484 kts | 276° |
| 2026-05-07 12:56 | 53.14385 | 2.67792 | 36116 ft | 484 kts | 276° |
| 2026-05-07 12:56 | 53.15112 | 2.56638 | 36119 ft | 484 kts | 276° |
| 2026-05-07 12:57 | 53.15825 | 2.45549 | 36113 ft | 484 kts | 276° |
| 2026-05-07 12:57 | 53.16532 | 2.34386 | 36117 ft | 485 kts | 276° |
| 2026-05-07 12:58 | 53.17230 | 2.23213 | 36117 ft | 485 kts | 275° |
| 2026-05-07 12:58 | 53.17917 | 2.12042 | 36115 ft | 484 kts | 275° |
| 2026-05-07 12:59 | 53.18593 | 2.00865 | 36118 ft | 485 kts | 275° |
| 2026-05-07 12:59 | 53.19259 | 1.89683 | 36116 ft | 485 kts | 275° |
| 2026-05-07 13:00 | 53.19915 | 1.78498 | 36114 ft | 485 kts | 275° |
| 2026-05-07 13:00 | 53.20560 | 1.67306 | 36115 ft | 485 kts | 275° |
| 2026-05-07 13:01 | 53.21195 | 1.56106 | 36105 ft | 485 kts | 275° |
| 2026-05-07 13:01 | 53.21820 | 1.44892 | 36111 ft | 485 kts | 275° |
| 2026-05-07 13:02 | 53.22435 | 1.33663 | 36104 ft | 486 kts | 275° |
| 2026-05-07 13:02 | 53.23039 | 1.22443 | 36098 ft | 486 kts | 274° |
| 2026-05-07 13:03 | 53.23633 | 1.11204 | 36105 ft | 486 kts | 274° |
| 2026-05-07 13:03 | 53.24217 | 0.99967 | 36098 ft | 486 kts | 274° |
| 2026-05-07 13:04 | 53.24790 | 0.88725 | 36095 ft | 486 kts | 274° |
| 2026-05-07 13:04 | 53.25352 | 0.77486 | 36089 ft | 485 kts | 274° |
| 2026-05-07 13:05 | 53.25899 | 0.66334 | 36090 ft | 484 kts | 274° |
| 2026-05-07 13:05 | 53.26439 | 0.55131 | 36078 ft | 484 kts | 274° |
| 2026-05-07 13:06 | 53.26968 | 0.43919 | 36073 ft | 484 kts | 274° |
| 2026-05-07 13:06 | 53.27486 | 0.32710 | 36066 ft | 484 kts | 273° |
| 2026-05-07 13:07 | 53.27993 | 0.21502 | 36070 ft | 484 kts | 273° |
| 2026-05-07 13:07 | 53.28493 | 0.10269 | 36072 ft | 485 kts | 273° |
| 2026-05-07 13:08 | 53.29153 | -0.00942 | 36073 ft | 485 kts | 279° |
| 2026-05-07 13:08 | 53.30345 | -0.12044 | 36068 ft | 485 kts | 279° |
| 2026-05-07 13:09 | 53.31522 | -0.23150 | 36071 ft | 485 kts | 279° |
| 2026-05-07 13:09 | 53.32465 | -0.32396 | 36071 ft | 485 kts | 278° |
| 2026-05-07 13:10 | 53.33587 | -0.43534 | 36073 ft | 485 kts | 278° |
| 2026-05-07 13:10 | 53.34708 | -0.54663 | 36072 ft | 485 kts | 278° |
| 2026-05-07 13:11 | 53.35823 | -0.65808 | 36070 ft | 485 kts | 278° |
| 2026-05-07 13:11 | 53.36908 | -0.76948 | 36067 ft | 485 kts | 278° |
| 2026-05-07 13:12 | 53.37981 | -0.88106 | 36064 ft | 485 kts | 278° |
| 2026-05-07 13:12 | 53.39063 | -0.99258 | 36056 ft | 485 kts | 278° |
| 2026-05-07 13:13 | 53.40159 | -1.10405 | 36059 ft | 485 kts | 278° |
| 2026-05-07 13:13 | 53.41218 | -1.21573 | 36056 ft | 485 kts | 278° |
| 2026-05-07 13:14 | 53.42245 | -1.32761 | 36052 ft | 485 kts | 277° |
| 2026-05-07 13:14 | 53.43293 | -1.43943 | 36054 ft | 485 kts | 278° |
| 2026-05-07 13:15 | 53.44334 | -1.55125 | 36048 ft | 485 kts | 277° |
| 2026-05-07 13:15 | 53.45353 | -1.66326 | 36040 ft | 486 kts | 277° |
| 2026-05-07 13:16 | 53.46364 | -1.77532 | 36041 ft | 486 kts | 277° |
| 2026-05-07 13:16 | 53.47358 | -1.88749 | 36035 ft | 486 kts | 277° |
| 2026-05-07 13:17 | 53.48327 | -1.99978 | 36043 ft | 486 kts | 277° |
| 2026-05-07 13:17 | 53.49292 | -2.11213 | 36041 ft | 486 kts | 276° |
| 2026-05-07 13:18 | 53.50241 | -2.22379 | 36036 ft | 486 kts | 276° |
| 2026-05-07 13:18 | 53.51190 | -2.33613 | 36027 ft | 486 kts | 276° |
| 2026-05-07 13:19 | 53.52130 | -2.44845 | 36031 ft | 486 kts | 276° |
| 2026-05-07 13:19 | 53.53060 | -2.56087 | 36031 ft | 485 kts | 276° |
| 2026-05-07 13:20 | 53.53979 | -2.67327 | 36032 ft | 485 kts | 276° |
| 2026-05-07 13:20 | 53.54886 | -2.78573 | 36031 ft | 485 kts | 276° |
| 2026-05-07 13:21 | 53.55783 | -2.89820 | 36046 ft | 485 kts | 276° |
| 2026-05-07 13:21 | 53.56669 | -3.01065 | 36049 ft | 485 kts | 276° |
| 2026-05-07 13:22 | 53.57544 | -3.12318 | 36063 ft | 485 kts | 275° |
| 2026-05-07 13:22 | 53.58409 | -3.23571 | 36049 ft | 485 kts | 275° |
| 2026-05-07 13:23 | 53.59262 | -3.34819 | 36040 ft | 484 kts | 275° |
| 2026-05-07 13:23 | 53.60105 | -3.46071 | 36040 ft | 484 kts | 275° |
| 2026-05-07 13:24 | 53.60937 | -3.57315 | 36018 ft | 484 kts | 275° |
| 2026-05-07 13:24 | 53.61752 | -3.68581 | 36019 ft | 484 kts | 274° |
| 2026-05-07 13:25 | 53.62233 | -3.79794 | 36017 ft | 483 kts | 271° |
| 2026-05-07 13:25 | 53.62653 | -3.91154 | 36017 ft | 483 kts | 272° |
| 2026-05-07 13:26 | 53.63116 | -4.02368 | 36008 ft | 483 kts | 271° |
| 2026-05-07 13:26 | 53.63554 | -4.13656 | 36008 ft | 483 kts | 271° |
| 2026-05-07 13:27 | 53.63975 | -4.24944 | 36007 ft | 482 kts | 271° |
| 2026-05-07 13:27 | 53.64386 | -4.36229 | 36001 ft | 482 kts | 271° |
| 2026-05-07 13:28 | 53.64781 | -4.47498 | 35997 ft | 482 kts | 271° |
| 2026-05-07 13:28 | 53.65168 | -4.58770 | 36003 ft | 481 kts | 271° |
| 2026-05-07 13:29 | 53.65546 | -4.70031 | 36005 ft | 481 kts | 270° |
| 2026-05-07 13:29 | 53.65914 | -4.81277 | 35990 ft | 480 kts | 270° |
| 2026-05-07 13:30 | 53.66280 | -4.92514 | 35993 ft | 480 kts | 270° |
| 2026-05-07 13:30 | 53.66651 | -5.03735 | 35989 ft | 479 kts | 270° |
| 2026-05-07 13:31 | 53.67010 | -5.14961 | 35987 ft | 479 kts | 270° |
| 2026-05-07 13:31 | 53.67340 | -5.26173 | 35995 ft | 479 kts | 270° |
| 2026-05-07 13:32 | 53.67655 | -5.37395 | 35982 ft | 479 kts | 270° |
| 2026-05-07 13:32 | 53.67965 | -5.48614 | 35983 ft | 478 kts | 270° |
| 2026-05-07 13:33 | 53.68549 | -5.59791 | 35980 ft | 479 kts | 273° |
| 2026-05-07 13:33 | 53.69273 | -5.70976 | 35979 ft | 479 kts | 273° |
| 2026-05-07 13:34 | 53.70325 | -5.87670 | 35970 ft | 479 kts | 273° |
| 2026-05-07 13:35 | 53.71002 | -5.98943 | 35970 ft | 479 kts | 272° |
| 2026-05-07 13:35 | 53.71658 | -6.10134 | 35959 ft | 479 kts | 272° |
| 2026-05-07 13:36 | 53.72300 | -6.21268 | 35959 ft | 479 kts | 272° |
| 2026-05-07 13:36 | 53.72937 | -6.32465 | 35963 ft | 479 kts | 272° |
| 2026-05-07 13:37 | 53.73563 | -6.43664 | 35950 ft | 479 kts | 272° |
| 2026-05-07 13:37 | 53.74178 | -6.54855 | 35946 ft | 478 kts | 272° |
| 2026-05-07 13:38 | 53.74781 | -6.66016 | 35949 ft | 477 kts | 272° |
| 2026-05-07 13:38 | 53.75373 | -6.77178 | 35943 ft | 477 kts | 272° |
| 2026-05-07 13:39 | 53.75954 | -6.88323 | 35942 ft | 476 kts | 272° |
| 2026-05-07 13:39 | 53.76524 | -6.99460 | 35935 ft | 475 kts | 272° |
| 2026-05-07 13:40 | 53.77083 | -7.10584 | 35935 ft | 475 kts | 271° |
| 2026-05-07 13:40 | 53.77631 | -7.21700 | 35925 ft | 474 kts | 271° |
| 2026-05-07 13:41 | 53.78169 | -7.32823 | 35934 ft | 474 kts | 271° |
| 2026-05-07 13:41 | 53.78695 | -7.43925 | 35921 ft | 473 kts | 271° |
| 2026-05-07 13:42 | 53.79211 | -7.55009 | 35909 ft | 472 kts | 271° |
| 2026-05-07 13:42 | 53.79715 | -7.66059 | 35917 ft | 471 kts | 271° |
| 2026-05-07 13:43 | 53.80208 | -7.77112 | 35905 ft | 471 kts | 271° |
| 2026-05-07 13:43 | 53.80691 | -7.88165 | 35918 ft | 471 kts | 271° |
| 2026-05-07 13:44 | 53.81163 | -7.99219 | 35905 ft | 471 kts | 271° |
| 2026-05-07 13:44 | 53.81626 | -8.10261 | 35905 ft | 471 kts | 271° |
| 2026-05-07 13:45 | 53.82077 | -8.21303 | 35908 ft | 470 kts | 271° |
| 2026-05-07 13:45 | 53.82520 | -8.32347 | 35907 ft | 470 kts | 270° |
| 2026-05-07 13:46 | 53.82950 | -8.43386 | 35904 ft | 470 kts | 271° |
| 2026-05-07 13:46 | 53.83368 | -8.54354 | 35917 ft | 470 kts | 270° |
| 2026-05-07 13:47 | 53.83779 | -8.65374 | 35916 ft | 469 kts | 270° |
| 2026-05-07 13:47 | 53.84179 | -8.76397 | 35908 ft | 469 kts | 270° |
| 2026-05-07 13:48 | 53.84569 | -8.87415 | 35912 ft | 468 kts | 270° |
| 2026-05-07 13:48 | 53.84948 | -8.98422 | 35929 ft | 468 kts | 270° |
| 2026-05-07 13:49 | 53.85316 | -9.09402 | 35905 ft | 467 kts | 270° |
| 2026-05-07 13:49 | 53.85674 | -9.20365 | 35905 ft | 466 kts | 270° |
| 2026-05-07 13:50 | 53.86021 | -9.31311 | 35922 ft | 465 kts | 270° |
| 2026-05-07 13:50 | 53.86358 | -9.42246 | 35917 ft | 465 kts | 270° |
| 2026-05-07 13:51 | 53.86684 | -9.53179 | 35930 ft | 464 kts | 270° |
| 2026-05-07 13:51 | 53.87000 | -9.64076 | 35927 ft | 463 kts | 270° |
| 2026-05-07 13:52 | 53.87305 | -9.74954 | 35921 ft | 461 kts | 270° |
| 2026-05-07 13:52 | 53.87599 | -9.85788 | 35926 ft | 460 kts | 270° |
| 2026-05-07 13:53 | 53.87883 | -9.96624 | 35924 ft | 460 kts | 269° |
| 2026-05-07 13:53 | 53.88158 | -10.07456 | 35931 ft | 460 kts | 269° |
| 2026-05-07 13:54 | 53.88423 | -10.18274 | 35918 ft | 459 kts | 269° |
| 2026-05-07 13:54 | 53.88677 | -10.29088 | 35924 ft | 459 kts | 269° |
| 2026-05-07 13:55 | 53.88924 | -10.39892 | 35925 ft | 459 kts | 269° |
| 2026-05-07 13:55 | 53.89235 | -10.50711 | 35922 ft | 460 kts | 271° |
| 2026-05-07 13:56 | 53.89713 | -10.61524 | 35925 ft | 460 kts | 271° |
| 2026-05-07 13:56 | 53.90197 | -10.72337 | 35917 ft | 460 kts | 271° |
| 2026-05-07 13:57 | 53.90648 | -10.83135 | 35917 ft | 459 kts | 271° |
| 2026-05-07 13:57 | 53.91004 | -10.92117 | 35921 ft | 459 kts | 271° |
| 2026-05-07 13:58 | 53.91420 | -11.02915 | 35919 ft | 459 kts | 270° |
| 2026-05-07 13:58 | 53.91826 | -11.13709 | 35921 ft | 459 kts | 270° |
| 2026-05-07 13:59 | 53.92223 | -11.24506 | 35919 ft | 459 kts | 270° |
| 2026-05-07 13:59 | 53.92611 | -11.35305 | 35919 ft | 459 kts | 270° |
| 2026-05-07 14:00 | 53.92989 | -11.46114 | 35923 ft | 459 kts | 270° |
| 2026-05-07 14:00 | 53.93358 | -11.56918 | 35923 ft | 459 kts | 270° |
| 2026-05-07 14:01 | 53.93717 | -11.67726 | 35935 ft | 459 kts | 269° |
| 2026-05-07 14:01 | 53.94067 | -11.78552 | 35923 ft | 459 kts | 269° |
| 2026-05-07 14:02 | 53.94406 | -11.89379 | 35923 ft | 459 kts | 269° |
| 2026-05-07 14:02 | 53.94734 | -12.00121 | 35927 ft | 459 kts | 269° |
| 2026-05-07 14:03 | 53.95054 | -12.10934 | 35929 ft | 459 kts | 269° |
| 2026-05-07 14:03 | 53.95364 | -12.21752 | 35936 ft | 459 kts | 269° |
| 2026-05-07 14:04 | 53.95664 | -12.32567 | 35928 ft | 459 kts | 269° |
| 2026-05-07 14:04 | 53.95956 | -12.43394 | 35925 ft | 459 kts | 269° |
| 2026-05-07 14:05 | 53.96237 | -12.54224 | 35929 ft | 459 kts | 269° |
| 2026-05-07 14:05 | 53.96508 | -12.65048 | 35929 ft | 459 kts | 269° |
| 2026-05-07 14:06 | 53.96770 | -12.75879 | 35936 ft | 459 kts | 269° |
| 2026-05-07 14:06 | 53.97022 | -12.86715 | 35926 ft | 459 kts | 269° |
| 2026-05-07 14:07 | 53.97265 | -12.97566 | 35937 ft | 459 kts | 269° |
| 2026-05-07 14:07 | 53.97498 | -13.08410 | 35934 ft | 459 kts | 269° |
| 2026-05-07 14:08 | 53.97721 | -13.19254 | 35939 ft | 459 kts | 269° |
| 2026-05-07 14:08 | 53.97934 | -13.30094 | 35951 ft | 459 kts | 269° |
| 2026-05-07 14:09 | 53.98137 | -13.40916 | 35933 ft | 458 kts | 269° |
| 2026-05-07 14:09 | 53.98330 | -13.51712 | 35936 ft | 457 kts | 269° |
| 2026-05-07 14:10 | 53.98513 | -13.62499 | 35951 ft | 456 kts | 268° |
| 2026-05-07 14:10 | 53.98685 | -13.73196 | 35943 ft | 456 kts | 268° |
| 2026-05-07 14:11 | 53.98848 | -13.83964 | 35957 ft | 456 kts | 268° |
| 2026-05-07 14:11 | 53.99002 | -13.94713 | 35944 ft | 455 kts | 268° |
| 2026-05-07 14:12 | 53.99146 | -14.05464 | 35951 ft | 455 kts | 268° |
| 2026-05-07 14:12 | 53.99280 | -14.16207 | 35951 ft | 455 kts | 268° |
| 2026-05-07 14:13 | 53.99405 | -14.26955 | 35958 ft | 455 kts | 268° |
| 2026-05-07 14:13 | 53.99520 | -14.37710 | 35962 ft | 455 kts | 268° |
| 2026-05-07 14:14 | 53.99626 | -14.48460 | 35962 ft | 455 kts | 268° |
| 2026-05-07 14:14 | 53.99722 | -14.59223 | 35959 ft | 455 kts | 268° |
| 2026-05-07 14:15 | 53.99809 | -14.69988 | 35964 ft | 455 kts | 268° |
| 2026-05-07 14:15 | 54.00627 | -14.80609 | 35965 ft | 461 kts | 287° |
| 2026-05-07 14:16 | 54.03251 | -14.90563 | 36021 ft | 458 kts | 279° |
| 2026-05-07 14:16 | 54.03583 | -14.95907 | 36128 ft | 452 kts | 265° |
| 2026-05-07 14:16 | 54.03428 | -15.01256 | 36277 ft | 454 kts | 266° |
| 2026-05-07 14:16 | 54.03396 | -15.06630 | 36470 ft | 455 kts | 268° |
| 2026-05-07 14:17 | 54.03470 | -15.12007 | 36702 ft | 455 kts | 270° |
| 2026-05-07 14:17 | 54.03591 | -15.17387 | 36935 ft | 455 kts | 270° |
| 2026-05-07 14:17 | 54.03723 | -15.22769 | 37131 ft | 456 kts | 270° |
| 2026-05-07 14:17 | 54.03850 | -15.28155 | 37335 ft | 456 kts | 270° |
| 2026-05-07 14:18 | 54.03968 | -15.33556 | 37519 ft | 457 kts | 270° |
| 2026-05-07 14:18 | 54.04075 | -15.38959 | 37752 ft | 457 kts | 270° |
| 2026-05-07 14:18 | 54.04174 | -15.44358 | 37881 ft | 457 kts | 270° |
| 2026-05-07 14:19 | 54.04355 | -15.55208 | 37985 ft | 460 kts | 270° |
| 2026-05-07 14:19 | 54.04525 | -15.66090 | 37975 ft | 459 kts | 270° |
| 2026-05-07 14:20 | 54.04684 | -15.76936 | 37976 ft | 458 kts | 270° |
| 2026-05-07 14:20 | 54.04835 | -15.87745 | 37987 ft | 457 kts | 270° |
| 2026-05-07 14:21 | 54.04975 | -15.98555 | 37989 ft | 457 kts | 270° |
| 2026-05-07 14:21 | 54.05106 | -16.09352 | 37989 ft | 457 kts | 270° |
| 2026-05-07 14:22 | 54.05227 | -16.20166 | 37990 ft | 457 kts | 270° |
| 2026-05-07 14:22 | 54.05339 | -16.30980 | 37993 ft | 457 kts | 270° |
| 2026-05-07 14:23 | 54.05441 | -16.41812 | 37995 ft | 458 kts | 270° |
| 2026-05-07 14:23 | 54.05533 | -16.52638 | 37992 ft | 458 kts | 270° |
| 2026-05-07 14:24 | 54.05616 | -16.63480 | 37992 ft | 458 kts | 270° |
| 2026-05-07 14:24 | 54.05689 | -16.74323 | 38001 ft | 458 kts | 270° |
| 2026-05-07 14:25 | 54.05752 | -16.85163 | 38001 ft | 458 kts | 270° |
| 2026-05-07 14:25 | 54.05805 | -16.95931 | 38009 ft | 458 kts | 269° |
| 2026-05-07 14:26 | 54.05849 | -17.06779 | 38018 ft | 458 kts | 269° |
| 2026-05-07 14:26 | 54.05882 | -17.17623 | 38008 ft | 458 kts | 270° |
| 2026-05-07 14:27 | 54.05907 | -17.28475 | 38009 ft | 458 kts | 269° |
| 2026-05-07 14:27 | 54.05921 | -17.39321 | 38017 ft | 458 kts | 269° |
| 2026-05-07 14:28 | 54.05926 | -17.50168 | 38022 ft | 458 kts | 269° |
| 2026-05-07 14:28 | 54.05921 | -17.61025 | 38018 ft | 459 kts | 269° |
| 2026-05-07 14:29 | 54.05906 | -17.71885 | 38015 ft | 459 kts | 269° |
| 2026-05-07 14:29 | 54.05881 | -17.82742 | 38028 ft | 459 kts | 269° |
| 2026-05-07 14:30 | 54.05847 | -17.93686 | 38031 ft | 459 kts | 269° |
| 2026-05-07 14:30 | 54.05803 | -18.04559 | 38035 ft | 460 kts | 269° |
| 2026-05-07 14:31 | 54.05748 | -18.15439 | 38031 ft | 460 kts | 269° |
| 2026-05-07 14:31 | 54.05685 | -18.26251 | 38028 ft | 460 kts | 269° |
| 2026-05-07 14:32 | 54.05611 | -18.37134 | 38040 ft | 460 kts | 269° |
| 2026-05-07 14:32 | 54.05528 | -18.48023 | 38039 ft | 460 kts | 269° |
| 2026-05-07 14:33 | 54.05434 | -18.58914 | 38039 ft | 460 kts | 269° |
| 2026-05-07 14:33 | 54.05331 | -18.69815 | 38046 ft | 460 kts | 269° |
| 2026-05-07 14:34 | 54.05217 | -18.80703 | 38041 ft | 461 kts | 269° |
| 2026-05-07 14:34 | 54.05094 | -18.91600 | 38051 ft | 460 kts | 269° |
| 2026-05-07 14:35 | 54.04961 | -19.02497 | 38051 ft | 460 kts | 269° |
| 2026-05-07 14:35 | 54.04819 | -19.13394 | 38055 ft | 460 kts | 269° |
| 2026-05-07 14:36 | 54.04666 | -19.24286 | 38054 ft | 460 kts | 269° |
| 2026-05-07 14:36 | 54.04504 | -19.35172 | 38055 ft | 460 kts | 269° |
| 2026-05-07 14:37 | 54.04332 | -19.46058 | 38065 ft | 460 kts | 269° |
| 2026-05-07 14:37 | 54.04055 | -19.62402 | 38067 ft | 461 kts | 269° |
| 2026-05-07 14:38 | 54.03858 | -19.73301 | 38067 ft | 461 kts | 269° |
| 2026-05-07 14:38 | 54.03653 | -19.84129 | 38072 ft | 461 kts | 268° |
| 2026-05-07 14:39 | 54.03438 | -19.95033 | 38068 ft | 461 kts | 269° |
| 2026-05-07 14:39 | 54.03523 | -20.05930 | 38080 ft | 460 kts | 274° |
| 2026-05-07 14:40 | 54.03990 | -20.16795 | 38078 ft | 461 kts | 274° |
| 2026-05-07 14:40 | 54.04448 | -20.27671 | 38079 ft | 461 kts | 274° |
| 2026-05-07 14:41 | 54.04880 | -20.38551 | 38091 ft | 461 kts | 274° |
| 2026-05-07 14:41 | 54.05294 | -20.49444 | 38084 ft | 462 kts | 274° |
| 2026-05-07 14:42 | 54.05696 | -20.60349 | 38087 ft | 462 kts | 274° |
| 2026-05-07 14:42 | 54.06089 | -20.71256 | 38088 ft | 462 kts | 274° |
| 2026-05-07 14:43 | 54.06473 | -20.82161 | 38091 ft | 462 kts | 274° |
| 2026-05-07 14:43 | 54.06847 | -20.93082 | 38096 ft | 462 kts | 274° |
| 2026-05-07 14:44 | 54.07150 | -21.02147 | 38100 ft | 462 kts | 274° |
| 2026-05-07 14:44 | 54.07562 | -21.14827 | 38098 ft | 461 kts | 274° |
| 2026-05-07 14:45 | 54.07906 | -21.25743 | 38105 ft | 462 kts | 274° |
| 2026-05-07 14:45 | 54.08241 | -21.36658 | 38107 ft | 462 kts | 274° |
| 2026-05-07 14:46 | 54.08513 | -21.45815 | 38113 ft | 462 kts | 274° |
| 2026-05-07 14:46 | 54.08830 | -21.56739 | 38107 ft | 462 kts | 274° |
| 2026-05-07 14:47 | 54.09136 | -21.67672 | 38105 ft | 462 kts | 274° |
| 2026-05-07 14:47 | 54.09432 | -21.78595 | 38108 ft | 462 kts | 274° |
| 2026-05-07 14:48 | 54.09719 | -21.89531 | 38113 ft | 462 kts | 274° |
| 2026-05-07 14:48 | 54.09996 | -22.00484 | 38120 ft | 463 kts | 274° |
| 2026-05-07 14:49 | 54.10262 | -22.11356 | 38114 ft | 463 kts | 274° |
| 2026-05-07 14:49 | 54.10519 | -22.22317 | 38115 ft | 463 kts | 273° |
| 2026-05-07 14:50 | 54.10767 | -22.33276 | 38119 ft | 463 kts | 273° |
| 2026-05-07 14:50 | 54.11004 | -22.44227 | 38128 ft | 463 kts | 273° |
| 2026-05-07 14:51 | 54.11231 | -22.55186 | 38121 ft | 463 kts | 273° |
| 2026-05-07 14:51 | 54.11449 | -22.66148 | 38127 ft | 463 kts | 273° |
| 2026-05-07 14:52 | 54.11656 | -22.77101 | 38111 ft | 463 kts | 273° |
| 2026-05-07 14:52 | 54.11854 | -22.88062 | 38142 ft | 463 kts | 273° |
| 2026-05-07 14:53 | 54.12042 | -22.99029 | 38137 ft | 463 kts | 273° |
| 2026-05-07 14:53 | 54.12220 | -23.10008 | 38131 ft | 463 kts | 273° |
| 2026-05-07 14:54 | 54.12387 | -23.20924 | 38140 ft | 464 kts | 273° |
| 2026-05-07 14:54 | 54.12545 | -23.31910 | 38141 ft | 464 kts | 273° |
| 2026-05-07 14:55 | 54.12693 | -23.42896 | 38145 ft | 463 kts | 273° |
| 2026-05-07 14:55 | 54.12831 | -23.53878 | 38143 ft | 464 kts | 273° |
| 2026-05-07 14:56 | 54.12959 | -23.64867 | 38143 ft | 464 kts | 273° |
| 2026-05-07 14:56 | 54.13077 | -23.75856 | 38150 ft | 464 kts | 273° |
| 2026-05-07 14:57 | 54.13185 | -23.86857 | 38156 ft | 464 kts | 273° |
| 2026-05-07 14:57 | 54.13283 | -23.97850 | 38140 ft | 463 kts | 273° |
| 2026-05-07 14:58 | 54.13371 | -24.08845 | 38153 ft | 464 kts | 273° |
| 2026-05-07 14:58 | 54.13449 | -24.19842 | 38160 ft | 465 kts | 273° |
| 2026-05-07 14:59 | 54.13518 | -24.30870 | 38158 ft | 465 kts | 273° |
| 2026-05-07 14:59 | 54.13576 | -24.41893 | 38167 ft | 465 kts | 273° |
| 2026-05-07 15:00 | 54.13624 | -24.52942 | 38144 ft | 465 kts | 273° |
| 2026-05-07 15:00 | 54.13662 | -24.63968 | 38169 ft | 465 kts | 273° |
| 2026-05-07 15:01 | 54.13690 | -24.74998 | 38173 ft | 465 kts | 273° |
| 2026-05-07 15:01 | 54.13708 | -24.86041 | 38177 ft | 466 kts | 273° |
| 2026-05-07 15:02 | 54.13715 | -24.97088 | 38180 ft | 466 kts | 272° |
| 2026-05-07 15:02 | 54.13713 | -25.08135 | 38179 ft | 466 kts | 272° |
| 2026-05-07 15:03 | 54.13700 | -25.19176 | 38180 ft | 465 kts | 273° |
| 2026-05-07 15:03 | 54.13677 | -25.30206 | 38186 ft | 465 kts | 272° |
| 2026-05-07 15:04 | 54.13645 | -25.41251 | 38195 ft | 466 kts | 273° |
| 2026-05-07 15:04 | 54.13602 | -25.52290 | 38187 ft | 466 kts | 273° |
| 2026-05-07 15:05 | 54.13549 | -25.63334 | 38192 ft | 465 kts | 272° |
| 2026-05-07 15:05 | 54.13486 | -25.74363 | 38186 ft | 464 kts | 273° |
| 2026-05-07 15:06 | 54.13413 | -25.85296 | 38196 ft | 464 kts | 272° |
| 2026-05-07 15:06 | 54.13331 | -25.96302 | 38202 ft | 464 kts | 272° |
| 2026-05-07 15:07 | 54.13238 | -26.07312 | 38206 ft | 464 kts | 272° |
| 2026-05-07 15:07 | 54.13135 | -26.18325 | 38205 ft | 465 kts | 272° |
| 2026-05-07 15:08 | 54.13022 | -26.29340 | 38181 ft | 464 kts | 272° |
| 2026-05-07 15:08 | 54.12899 | -26.40333 | 38209 ft | 464 kts | 272° |
| 2026-05-07 15:09 | 54.12766 | -26.51321 | 38217 ft | 463 kts | 272° |
| 2026-05-07 15:09 | 54.12623 | -26.62305 | 38219 ft | 463 kts | 272° |
| 2026-05-07 15:10 | 54.12471 | -26.73294 | 38218 ft | 464 kts | 272° |
| 2026-05-07 15:10 | 54.12308 | -26.84277 | 38226 ft | 464 kts | 272° |
| 2026-05-07 15:11 | 54.12135 | -26.95254 | 38218 ft | 463 kts | 272° |
| 2026-05-07 15:11 | 54.11952 | -27.06211 | 38224 ft | 462 kts | 272° |
| 2026-05-07 15:12 | 54.11760 | -27.17160 | 38224 ft | 462 kts | 272° |
| 2026-05-07 15:12 | 54.11558 | -27.28116 | 38230 ft | 462 kts | 272° |
| 2026-05-07 15:13 | 54.11346 | -27.39075 | 38235 ft | 463 kts | 272° |
| 2026-05-07 15:13 | 54.11123 | -27.50031 | 38227 ft | 461 kts | 272° |
| 2026-05-07 15:14 | 54.10891 | -27.60949 | 38231 ft | 461 kts | 272° |
| 2026-05-07 15:14 | 54.10652 | -27.71793 | 38237 ft | 461 kts | 272° |
| 2026-05-07 15:15 | 54.10402 | -27.82692 | 38236 ft | 461 kts | 272° |
| 2026-05-07 15:15 | 54.10141 | -27.93600 | 38244 ft | 461 kts | 272° |
| 2026-05-07 15:16 | 54.09871 | -28.04509 | 38245 ft | 461 kts | 272° |
| 2026-05-07 15:16 | 54.09590 | -28.15425 | 38248 ft | 461 kts | 272° |
| 2026-05-07 15:17 | 54.09299 | -28.26346 | 38248 ft | 462 kts | 272° |
| 2026-05-07 15:17 | 54.08998 | -28.37276 | 38253 ft | 462 kts | 272° |
| 2026-05-07 15:18 | 54.08687 | -28.48198 | 38255 ft | 462 kts | 272° |
| 2026-05-07 15:18 | 54.08366 | -28.59124 | 38256 ft | 462 kts | 272° |
| 2026-05-07 15:19 | 54.08035 | -28.70037 | 38252 ft | 461 kts | 272° |
| 2026-05-07 15:19 | 54.07696 | -28.80928 | 38256 ft | 460 kts | 272° |
| 2026-05-07 15:20 | 54.07347 | -28.91802 | 38266 ft | 460 kts | 272° |
| 2026-05-07 15:20 | 54.06989 | -29.02679 | 38266 ft | 460 kts | 272° |
| 2026-05-07 15:21 | 54.06620 | -29.13561 | 38269 ft | 460 kts | 272° |
| 2026-05-07 15:21 | 54.06241 | -29.24429 | 38264 ft | 459 kts | 272° |
| 2026-05-07 15:22 | 54.05857 | -29.35194 | 38286 ft | 459 kts | 272° |
| 2026-05-07 15:22 | 54.05460 | -29.46038 | 38273 ft | 459 kts | 272° |
| 2026-05-07 15:23 | 54.05054 | -29.56875 | 38282 ft | 459 kts | 272° |
| 2026-05-07 15:23 | 54.04638 | -29.67709 | 38281 ft | 459 kts | 272° |
| 2026-05-07 15:24 | 54.04212 | -29.78551 | 38253 ft | 459 kts | 272° |
| 2026-05-07 15:24 | 54.03778 | -29.89351 | 38273 ft | 457 kts | 272° |
| 2026-05-07 15:25 | 54.03336 | -30.00137 | 38285 ft | 457 kts | 272° |
| 2026-05-07 15:25 | 54.02778 | -30.10908 | 38285 ft | 458 kts | 270° |
| 2026-05-07 15:26 | 54.02128 | -30.21676 | 38287 ft | 458 kts | 270° |
| 2026-05-07 15:26 | 54.01472 | -30.32447 | 38288 ft | 458 kts | 270° |
| 2026-05-07 15:27 | 54.00823 | -30.43166 | 38282 ft | 454 kts | 271° |
| 2026-05-07 15:27 | 54.00177 | -30.53800 | 38292 ft | 451 kts | 271° |
| 2026-05-07 15:28 | 53.99528 | -30.64380 | 38303 ft | 449 kts | 271° |
| 2026-05-07 15:28 | 53.98871 | -30.74927 | 38289 ft | 449 kts | 270° |
| 2026-05-07 15:29 | 53.98205 | -30.85479 | 38297 ft | 449 kts | 270° |
| 2026-05-07 15:29 | 53.97528 | -30.96024 | 38301 ft | 449 kts | 270° |
| 2026-05-07 15:30 | 53.96843 | -31.06549 | 38303 ft | 448 kts | 270° |
| 2026-05-07 15:30 | 53.96150 | -31.17063 | 38304 ft | 448 kts | 270° |
| 2026-05-07 15:31 | 53.95448 | -31.27572 | 38301 ft | 448 kts | 270° |
| 2026-05-07 15:31 | 53.94736 | -31.38068 | 38305 ft | 448 kts | 270° |
| 2026-05-07 15:32 | 53.94016 | -31.48562 | 38260 ft | 448 kts | 270° |
| 2026-05-07 15:32 | 53.93290 | -31.58984 | 38302 ft | 448 kts | 270° |
| 2026-05-07 15:33 | 53.92550 | -31.69488 | 38309 ft | 449 kts | 270° |
| 2026-05-07 15:33 | 53.91800 | -31.80008 | 38308 ft | 450 kts | 270° |
| 2026-05-07 15:34 | 53.91038 | -31.90555 | 38308 ft | 451 kts | 270° |
| 2026-05-07 15:34 | 53.90393 | -31.99388 | 38310 ft | 451 kts | 270° |
| 2026-05-07 15:35 | 53.89612 | -32.09941 | 38312 ft | 451 kts | 270° |
| 2026-05-07 15:35 | 53.88823 | -32.20497 | 38314 ft | 452 kts | 270° |
| 2026-05-07 15:36 | 53.88028 | -32.31004 | 38318 ft | 453 kts | 270° |
| 2026-05-07 15:36 | 53.87216 | -32.41595 | 38313 ft | 454 kts | 269° |
| 2026-05-07 15:37 | 53.86394 | -32.52195 | 38319 ft | 454 kts | 269° |
| 2026-05-07 15:37 | 53.85561 | -32.62802 | 38290 ft | 453 kts | 270° |
| 2026-05-07 15:38 | 53.84722 | -32.73369 | 38307 ft | 453 kts | 270° |
| 2026-05-07 15:38 | 53.83876 | -32.83914 | 38315 ft | 452 kts | 270° |
| 2026-05-07 15:39 | 53.83020 | -32.94459 | 38325 ft | 452 kts | 269° |
| 2026-05-07 15:39 | 53.82156 | -33.04979 | 38323 ft | 451 kts | 270° |
| 2026-05-07 15:40 | 53.81284 | -33.15487 | 38302 ft | 450 kts | 270° |
| 2026-05-07 15:40 | 53.80407 | -33.25926 | 38312 ft | 447 kts | 270° |
| 2026-05-07 15:41 | 53.79526 | -33.36310 | 38318 ft | 445 kts | 270° |
| 2026-05-07 15:41 | 53.78640 | -33.46656 | 38318 ft | 444 kts | 270° |
| 2026-05-07 15:42 | 53.77747 | -33.56983 | 38325 ft | 444 kts | 270° |
| 2026-05-07 15:42 | 53.76844 | -33.67320 | 38324 ft | 445 kts | 270° |
| 2026-05-07 15:43 | 53.75930 | -33.77667 | 38323 ft | 446 kts | 270° |
| 2026-05-07 15:43 | 53.75012 | -33.87955 | 38327 ft | 446 kts | 269° |
| 2026-05-07 15:44 | 53.74076 | -33.98327 | 38327 ft | 447 kts | 269° |
| 2026-05-07 15:44 | 53.73131 | -34.08699 | 38325 ft | 447 kts | 269° |
| 2026-05-07 15:45 | 53.72177 | -34.19068 | 38326 ft | 447 kts | 269° |
| 2026-05-07 15:45 | 53.71213 | -34.29436 | 38288 ft | 446 kts | 269° |
| 2026-05-07 15:46 | 53.69758 | -34.44896 | 38326 ft | 444 kts | 269° |
| 2026-05-07 15:47 | 53.68780 | -34.55171 | 38323 ft | 443 kts | 269° |
| 2026-05-07 15:47 | 53.67796 | -34.65427 | 38326 ft | 443 kts | 269° |
| 2026-05-07 15:48 | 53.66802 | -34.75686 | 38332 ft | 443 kts | 269° |
| 2026-05-07 15:48 | 53.65799 | -34.85934 | 38310 ft | 442 kts | 269° |
| 2026-05-07 15:49 | 53.64789 | -34.96158 | 38327 ft | 442 kts | 269° |
| 2026-05-07 15:49 | 53.63772 | -35.06362 | 38327 ft | 442 kts | 269° |
| 2026-05-07 15:50 | 53.62746 | -35.16569 | 38328 ft | 442 kts | 269° |
| 2026-05-07 15:50 | 53.61711 | -35.26779 | 38330 ft | 442 kts | 269° |
| 2026-05-07 15:51 | 53.60667 | -35.36981 | 38328 ft | 442 kts | 269° |
| 2026-05-07 15:51 | 53.59616 | -35.47145 | 38321 ft | 440 kts | 269° |
| 2026-05-07 15:52 | 53.58561 | -35.57264 | 38313 ft | 438 kts | 268° |
| 2026-05-07 15:52 | 53.57503 | -35.67330 | 38324 ft | 436 kts | 268° |
| 2026-05-07 15:53 | 53.56449 | -35.77287 | 38328 ft | 435 kts | 268° |
| 2026-05-07 15:53 | 53.55382 | -35.87281 | 38328 ft | 434 kts | 268° |
| 2026-05-07 15:54 | 53.54306 | -35.97275 | 38323 ft | 434 kts | 268° |
| 2026-05-07 15:54 | 53.53223 | -36.07258 | 38330 ft | 435 kts | 268° |
| 2026-05-07 15:55 | 53.52128 | -36.17261 | 38330 ft | 436 kts | 268° |
| 2026-05-07 15:55 | 53.51023 | -36.27275 | 38330 ft | 436 kts | 268° |
| 2026-05-07 15:56 | 53.49908 | -36.37298 | 38331 ft | 437 kts | 268° |
| 2026-05-07 15:56 | 53.48782 | -36.47329 | 38283 ft | 437 kts | 268° |
| 2026-05-07 15:57 | 53.47651 | -36.57328 | 38312 ft | 436 kts | 267° |
| 2026-05-07 15:57 | 53.46513 | -36.67308 | 38330 ft | 435 kts | 267° |
| 2026-05-07 15:58 | 53.45370 | -36.77267 | 38331 ft | 434 kts | 267° |
| 2026-05-07 15:58 | 53.44219 | -36.87212 | 38320 ft | 434 kts | 267° |
| 2026-05-07 15:59 | 53.43061 | -36.97134 | 38322 ft | 433 kts | 266° |
| 2026-05-07 15:59 | 53.41898 | -37.07037 | 38323 ft | 432 kts | 266° |
| 2026-05-07 16:00 | 53.40735 | -37.16862 | 38322 ft | 433 kts | 266° |
| 2026-05-07 16:00 | 53.39554 | -37.26761 | 38332 ft | 434 kts | 266° |
| 2026-05-07 16:01 | 53.38362 | -37.36681 | 38330 ft | 435 kts | 266° |
| 2026-05-07 16:01 | 53.37161 | -37.46603 | 38326 ft | 435 kts | 266° |
| 2026-05-07 16:02 | 53.35949 | -37.56532 | 38282 ft | 435 kts | 266° |
| 2026-05-07 16:02 | 53.34730 | -37.66451 | 38313 ft | 435 kts | 265° |
| 2026-05-07 16:03 | 53.33500 | -37.76392 | 38328 ft | 436 kts | 265° |
| 2026-05-07 16:03 | 53.32260 | -37.86335 | 38327 ft | 437 kts | 265° |
| 2026-05-07 16:04 | 53.31011 | -37.96280 | 38324 ft | 437 kts | 265° |
| 2026-05-07 16:04 | 53.29753 | -38.06222 | 38312 ft | 437 kts | 265° |
| 2026-05-07 16:05 | 53.28487 | -38.16156 | 38313 ft | 436 kts | 264° |
| 2026-05-07 16:05 | 53.27215 | -38.26060 | 38322 ft | 436 kts | 264° |
| 2026-05-07 16:06 | 53.25936 | -38.35961 | 38315 ft | 436 kts | 264° |
| 2026-05-07 16:06 | 53.24651 | -38.45835 | 38318 ft | 435 kts | 264° |
| 2026-05-07 16:07 | 53.23359 | -38.55698 | 38318 ft | 435 kts | 264° |
| 2026-05-07 16:07 | 53.22059 | -38.65553 | 38282 ft | 435 kts | 264° |
| 2026-05-07 16:08 | 53.20752 | -38.75395 | 38313 ft | 435 kts | 264° |
| 2026-05-07 16:08 | 53.19443 | -38.85178 | 38319 ft | 435 kts | 264° |
| 2026-05-07 16:09 | 53.18116 | -38.95038 | 38314 ft | 436 kts | 263° |
| 2026-05-07 16:09 | 53.16779 | -39.04902 | 38316 ft | 436 kts | 263° |
| 2026-05-07 16:10 | 53.15432 | -39.14767 | 38310 ft | 437 kts | 263° |
| 2026-05-07 16:10 | 53.14077 | -39.24630 | 38310 ft | 437 kts | 263° |
| 2026-05-07 16:11 | 53.12715 | -39.34479 | 38307 ft | 436 kts | 263° |
| 2026-05-07 16:11 | 53.11347 | -39.44309 | 38309 ft | 435 kts | 263° |
| 2026-05-07 16:12 | 53.09975 | -39.54098 | 38305 ft | 434 kts | 263° |
| 2026-05-07 16:12 | 53.08599 | -39.63855 | 38301 ft | 433 kts | 263° |
| 2026-05-07 16:13 | 53.07219 | -39.73587 | 38286 ft | 432 kts | 262° |
| 2026-05-07 16:13 | 53.05830 | -39.83315 | 38300 ft | 433 kts | 262° |
| 2026-05-07 16:14 | 53.04433 | -39.93045 | 38297 ft | 434 kts | 262° |
| 2026-05-07 16:14 | 53.03022 | -40.02797 | 38295 ft | 434 kts | 262° |
| 2026-05-07 16:15 | 53.01560 | -40.12538 | 38292 ft | 435 kts | 262° |
| 2026-05-07 16:15 | 53.00071 | -40.22288 | 38295 ft | 435 kts | 261° |
| 2026-05-07 16:16 | 52.98589 | -40.31959 | 38290 ft | 436 kts | 261° |
| 2026-05-07 16:16 | 52.97091 | -40.41708 | 38296 ft | 436 kts | 261° |